createdAt,value
2022-12-09T00:04:07.345Z,114.50
2022-12-09T00:09:07.132Z,122.10
2022-12-09T00:14:07.055Z,106.60
2022-12-09T00:19:06.978Z,105.40
2022-12-09T00:24:07.025Z,110.50
2022-12-09T00:29:06.822Z,99.40
2022-12-09T00:34:06.820Z,94.30
2022-12-09T00:39:06.705Z,106.80
2022-12-09T00:44:06.838Z,114.80
2022-12-09T00:49:06.601Z,110.80
2022-12-09T00:54:07.583Z,122.40
2022-12-09T00:59:07.552Z,138.80
2022-12-09T01:04:06.491Z,335.30
2022-12-09T01:09:09.893Z,169.80
2022-12-09T01:14:06.645Z,143.40
2022-12-09T01:19:06.400Z,127.70
2022-12-09T01:24:06.353Z,98.30
2022-12-09T01:29:06.289Z,112.30
2022-12-09T01:34:06.410Z,88.30
2022-12-09T01:39:06.380Z,80.10
2022-12-09T01:44:05.946Z,99.20
2022-12-09T01:49:05.868Z,103.40
2022-12-09T01:54:06.249Z,111.10
2022-12-09T01:59:05.896Z,162.20
2022-12-09T02:04:05.929Z,70.70
2022-12-09T02:09:05.904Z,65.90
2022-12-09T02:14:05.634Z,65.10
2022-12-09T02:19:05.818Z,60.80
2022-12-09T02:24:05.551Z,69.00
2022-12-09T02:29:05.686Z,74.00
2022-12-09T02:34:05.536Z,61.30
2022-12-09T02:39:05.793Z,64.50
2022-12-09T02:44:05.505Z,59.10
2022-12-09T02:49:05.560Z,55.00
2022-12-09T02:54:05.505Z,62.30
2022-12-09T02:59:05.119Z,62.40
2022-12-09T03:04:05.215Z,62.10
2022-12-09T03:09:05.417Z,60.60
2022-12-09T03:14:05.089Z,89.00
2022-12-09T03:19:05.355Z,89.30
2022-12-09T03:24:05.139Z,108.80
2022-12-09T03:29:04.881Z,101.60
2022-12-09T03:34:05.072Z,99.80
2022-12-09T03:39:14.353Z,98.00
2022-12-09T03:44:04.666Z,108.10
2022-12-09T03:49:04.879Z,95.10
2022-12-09T03:54:04.534Z,92.50
2022-12-09T03:59:04.843Z,139.80
2022-12-09T04:04:04.506Z,116.80
2022-12-09T04:09:04.925Z,116.60
2022-12-09T04:14:15.772Z,118.40
2022-12-09T04:19:04.389Z,77.30
2022-12-09T04:24:04.275Z,90.40
2022-12-09T04:29:04.419Z,276.20
2022-12-09T04:34:09.293Z,82.20
2022-12-09T04:39:05.398Z,69.00
2022-12-09T04:44:04.285Z,78.70
2022-12-09T04:49:04.091Z,73.40
2022-12-09T04:54:03.917Z,59.50
2022-12-09T04:59:03.827Z,63.90
2022-12-09T05:04:04.378Z,62.10
2022-12-09T05:09:04.306Z,67.70
2022-12-09T05:14:03.865Z,76.90
2022-12-09T05:19:03.992Z,86.50
2022-12-09T05:24:03.794Z,101.70
2022-12-09T05:29:03.625Z,166.40
2022-12-09T05:34:03.884Z,165.60
2022-12-09T05:39:03.789Z,129.10
2022-12-09T05:44:03.411Z,86.30
2022-12-09T05:49:03.826Z,66.50
2022-12-09T05:54:03.584Z,61.00
2022-12-09T05:59:03.336Z,62.10
2022-12-09T06:04:03.459Z,55.80
2022-12-09T06:09:03.687Z,45.60
2022-12-09T06:14:03.541Z,43.90
2022-12-09T06:20:27.803Z,63.00
2022-12-09T06:25:27.372Z,62.20
2022-12-09T06:30:27.464Z,63.60
2022-12-09T06:35:27.763Z,72.10
2022-12-09T06:40:27.204Z,59.90
2022-12-09T06:45:27.546Z,63.20
2022-12-09T06:50:27.307Z,59.40
2022-12-09T06:55:27.434Z,68.10
2022-12-09T07:00:27.441Z,54.90
2022-12-09T07:05:27.047Z,57.90
2022-12-09T07:10:27.177Z,87.00
2022-12-09T07:15:27.015Z,93.20
2022-12-09T07:20:26.895Z,103.50
2022-12-09T07:25:26.765Z,101.70
2022-12-09T07:30:27.015Z,157.10
2022-12-09T07:35:26.875Z,104.20
2022-12-09T07:40:26.650Z,100.10
2022-12-09T07:45:26.990Z,111.60
2022-12-09T07:50:26.816Z,91.10
2022-12-09T07:55:26.354Z,97.80
2022-12-09T08:00:26.504Z,95.50
2022-12-09T08:05:26.510Z,92.10
2022-12-09T08:10:26.413Z,89.50
2022-12-09T08:15:26.196Z,143.00
2022-12-09T08:20:29.463Z,182.60
2022-12-09T08:25:26.471Z,213.50
2022-12-09T08:30:26.379Z,118.30
2022-12-09T08:35:26.249Z,177.30
2022-12-09T08:40:26.216Z,144.20
2022-12-09T08:45:26.226Z,141.60
2022-12-09T08:50:26.452Z,171.40
2022-12-09T08:55:27.150Z,134.60
2022-12-09T09:00:25.969Z,151.20
2022-12-09T09:05:26.168Z,126.70
2022-12-09T09:10:25.906Z,187.30
2022-12-09T09:15:25.791Z,126.80
2022-12-09T09:20:25.726Z,106.00
2022-12-09T09:25:25.580Z,111.20
2022-12-09T09:30:25.483Z,112.70
2022-12-09T09:35:25.586Z,97.60
2022-12-09T09:40:25.856Z,87.00
2022-12-09T09:45:25.582Z,81.40
2022-12-09T09:50:25.455Z,94.90
2022-12-09T09:55:25.161Z,74.70
2022-12-09T10:00:26.069Z,77.90
2022-12-09T10:05:25.257Z,69.10
2022-12-09T10:10:34.364Z,70.80
2022-12-09T10:15:25.094Z,74.50
2022-12-09T10:20:25.502Z,67.70
2022-12-09T10:25:25.024Z,63.00
2022-12-09T10:30:28.229Z,68.10
2022-12-09T10:35:25.976Z,74.70
2022-12-09T10:40:24.891Z,65.30
2022-12-09T10:45:24.743Z,63.50
2022-12-09T10:50:25.211Z,66.80
2022-12-09T10:55:24.880Z,55.20
2022-12-09T11:00:28.364Z,62.70
2022-12-09T11:05:25.750Z,60.40
2022-12-09T11:10:25.366Z,59.30
2022-12-09T11:15:24.732Z,63.70
2022-12-09T11:20:24.469Z,59.90
2022-12-09T11:25:24.791Z,51.70
2022-12-09T11:30:24.895Z,54.50
2022-12-09T11:35:24.232Z,46.20
2022-12-09T11:40:23.957Z,57.00
2022-12-09T11:45:23.918Z,49.20
2022-12-09T11:50:23.907Z,45.00
2022-12-09T11:55:23.819Z,42.80
2022-12-09T12:00:23.766Z,46.30
2022-12-09T12:05:23.734Z,44.80
2022-12-09T12:10:23.637Z,44.70
2022-12-09T12:15:23.643Z,34.60
2022-12-09T12:20:23.547Z,44.90
2022-12-09T12:25:23.473Z,38.70
2022-12-09T12:30:23.562Z,51.70
2022-12-09T12:35:23.461Z,42.80
2022-12-09T12:40:26.721Z,40.20
2022-12-09T12:45:23.271Z,41.70
2022-12-09T12:50:23.241Z,38.80
2022-12-09T12:55:23.255Z,34.10
2022-12-09T13:00:23.177Z,36.10
2022-12-09T13:05:23.067Z,33.40
2022-12-09T13:10:22.986Z,35.80
2022-12-09T13:15:22.954Z,38.70
2022-12-09T13:20:22.924Z,35.30
2022-12-09T13:25:22.865Z,37.80
2022-12-09T13:30:22.963Z,40.10
2022-12-09T13:35:22.716Z,37.20
2022-12-09T13:40:22.741Z,34.00
2022-12-09T13:45:22.742Z,33.10
2022-12-09T13:50:22.603Z,34.60
2022-12-09T13:55:22.738Z,41.60
2022-12-09T14:00:23.567Z,40.50
2022-12-09T14:05:22.552Z,44.40
2022-12-09T14:10:22.528Z,40.70
2022-12-09T14:15:24.746Z,40.50
2022-12-09T14:20:23.322Z,41.00
2022-12-09T14:25:22.257Z,49.20
2022-12-09T14:30:22.120Z,46.90
2022-12-09T14:35:22.256Z,49.40
2022-12-09T14:40:22.103Z,48.10
2022-12-09T14:45:22.169Z,45.60
2022-12-09T14:50:22.905Z,44.00
2022-12-09T14:55:21.893Z,40.40
2022-12-09T15:00:21.949Z,42.40
2022-12-09T15:05:21.893Z,38.10
2022-12-09T15:10:22.941Z,42.50
2022-12-09T15:15:21.949Z,45.50
2022-12-09T15:20:21.611Z,43.30
2022-12-09T15:25:21.594Z,47.80
2022-12-09T15:30:21.522Z,51.80
2022-12-09T15:35:21.525Z,45.80
2022-12-09T15:40:21.423Z,53.50
2022-12-09T15:45:21.361Z,64.00
2022-12-09T15:50:21.422Z,61.50
2022-12-09T15:55:21.220Z,70.30
2022-12-09T16:00:21.226Z,63.20
2022-12-09T16:05:22.264Z,57.00
2022-12-09T16:10:21.071Z,65.10
2022-12-09T16:15:29.868Z,68.40
2022-12-09T16:20:20.939Z,78.20
2022-12-09T16:25:20.869Z,78.40
2022-12-09T16:30:20.818Z,72.20
2022-12-09T16:35:20.952Z,77.30
2022-12-09T16:40:20.729Z,67.60
2022-12-09T16:45:21.843Z,72.70
2022-12-09T16:50:20.758Z,79.20
2022-12-09T16:55:20.675Z,75.20
2022-12-09T17:00:20.500Z,85.00
2022-12-09T17:05:20.435Z,88.60
2022-12-09T17:10:20.404Z,94.90
2022-12-09T17:15:20.848Z,136.70
2022-12-09T17:20:20.321Z,167.00
2022-12-09T17:25:20.356Z,189.90
2022-12-09T17:30:21.310Z,180.30
2022-12-09T17:35:20.251Z,177.90
2022-12-09T17:40:20.137Z,252.70
2022-12-09T17:45:20.088Z,192.40
2022-12-09T17:50:20.052Z,189.00
2022-12-09T17:55:21.988Z,176.50
2022-12-09T18:00:19.974Z,193.40
2022-12-09T18:05:19.963Z,149.30
2022-12-09T18:10:20.003Z,159.20
2022-12-09T18:15:19.782Z,139.20
2022-12-09T18:20:19.877Z,144.00
2022-12-09T18:25:19.796Z,133.80
2022-12-09T18:30:19.517Z,134.40
2022-12-09T18:35:19.536Z,131.90
2022-12-09T18:40:19.432Z,157.50
2022-12-09T18:45:19.455Z,164.40
2022-12-09T18:50:19.411Z,163.10
2022-12-09T18:55:19.292Z,138.60
2022-12-09T19:00:19.359Z,125.30
2022-12-09T19:05:19.288Z,129.80
2022-12-09T19:10:19.265Z,137.70
2022-12-09T19:15:19.166Z,122.00
2022-12-09T19:20:19.163Z,135.10
2022-12-09T19:25:18.980Z,123.50
2022-12-09T19:30:18.892Z,114.30
2022-12-09T19:35:18.856Z,122.20
2022-12-09T19:40:18.806Z,120.70
2022-12-09T19:45:18.919Z,112.20
2022-12-09T19:50:18.708Z,126.70
2022-12-09T19:55:18.690Z,121.40
2022-12-09T20:00:18.653Z,120.70
2022-12-09T20:05:18.544Z,150.80
2022-12-09T20:10:18.542Z,126.50
2022-12-09T20:15:18.577Z,125.00
2022-12-09T20:20:18.343Z,119.90
2022-12-09T20:25:20.368Z,114.90
2022-12-09T20:30:18.263Z,113.20
2022-12-09T20:35:18.199Z,118.10
2022-12-09T20:40:18.136Z,122.70
2022-12-09T20:45:18.083Z,139.90
2022-12-09T20:50:18.164Z,125.50
2022-12-09T20:55:17.972Z,116.50
2022-12-09T21:00:18.137Z,136.60
2022-12-09T21:05:17.897Z,164.80
2022-12-09T21:10:17.906Z,154.90
2022-12-09T21:15:17.755Z,181.80
2022-12-09T21:20:17.696Z,163.20
2022-12-09T21:25:17.684Z,144.10
2022-12-09T21:30:17.603Z,158.00
2022-12-09T21:35:17.692Z,153.90
2022-12-09T21:40:21.107Z,159.80
2022-12-09T21:45:17.520Z,168.30
2022-12-09T21:50:17.547Z,142.70
2022-12-09T21:55:17.339Z,144.70
2022-12-09T22:00:17.333Z,167.20
2022-12-09T22:05:17.216Z,182.70
2022-12-09T22:10:17.190Z,179.90
2022-12-09T22:15:25.973Z,173.00
2022-12-09T22:21:24.131Z,177.50
2022-12-09T22:25:18.090Z,214.40
2022-12-09T22:30:17.053Z,227.00
2022-12-09T22:35:17.040Z,239.90
2022-12-09T22:40:16.903Z,215.30
2022-12-09T22:45:16.807Z,194.30
2022-12-09T22:50:16.899Z,210.20
2022-12-09T22:55:16.782Z,225.40
2022-12-09T23:00:16.657Z,211.20
2022-12-09T23:05:16.667Z,185.90
2022-12-09T23:10:16.604Z,242.30
2022-12-09T23:15:16.533Z,202.00
2022-12-09T23:20:16.435Z,185.70
2022-12-09T23:25:16.403Z,231.30
2022-12-09T23:30:16.351Z,244.10
2022-12-09T23:35:16.311Z,189.20
2022-12-09T23:40:16.256Z,187.10
2022-12-09T23:45:16.203Z,361.20
2022-12-09T23:50:16.204Z,329.20
2022-12-09T23:55:16.151Z,279.80
